Time;durP1;ratioP1;P1;durP2;ratioP2;P2;SDS_P1;SDS_P2;PMS_P1;PMS_P2;Temp;Humidity;BMP_temperature;BMP_pressure;BME280_temperature;BME280_humidity;BME280_pressure;Samples;Min_cycle;Max_cycle;Signal;HPM_P1;HPM_P2
2023/04/20 00:01:42;;;;;;;12.60;5.78;;;;;;;8.92;100.00;102745.47;5139480;27;20039;-91
2023/04/20 00:04:09;;;;;;;14.13;6.40;;;;;;;8.86;100.00;102737.63;5140967;27;20092;-91
2023/04/20 00:06:36;;;;;;;14.52;6.72;;;;;;;8.77;100.00;102721.97;5140103;27;20047;-90
2023/04/20 00:09:03;;;;;;;12.95;5.80;;;;;;;8.86;100.00;102767.25;5139663;27;20155;-91
2023/04/20 00:11:30;;;;;;;15.85;6.82;;;;;;;8.74;100.00;102744.56;5139040;27;20050;-91
2023/04/20 00:13:57;;;;;;;10.85;4.68;;;;;;;8.83;100.00;102763.75;5139790;27;20073;-91
2023/04/20 00:16:24;;;;;;;10.43;4.38;;;;;;;8.75;100.00;102750.69;5139208;27;20055;-90
2023/04/20 00:18:51;;;;;;;13.63;5.43;;;;;;;8.83;100.00;102754.16;5139350;27;20099;-90
2023/04/20 00:21:22;;;;;;;13.65;6.78;;;;;;;8.62;100.00;102720.16;5139411;27;20043;-90
2023/04/20 00:23:50;;;;;;;12.05;5.72;;;;;;;8.67;100.00;102721.91;5138818;27;20126;-90
2023/04/20 00:26:18;;;;;;;15.65;7.30;;;;;;;8.87;100.00;102749.81;5139984;27;20043;-90
2023/04/20 00:28:45;;;;;;;13.85;6.50;;;;;;;8.62;100.00;102714.94;5123665;27;20040;-90
2023/04/20 00:31:11;;;;;;;11.25;4.75;;;;;;;8.68;100.00;102744.56;5136997;27;20050;-90
2023/04/20 00:33:38;;;;;;;12.85;6.35;;;;;;;8.50;100.00;102715.81;5134678;27;20133;-88
2023/04/20 00:36:05;;;;;;;12.60;6.32;;;;;;;8.50;100.00;102742.78;5138659;27;20438;-89
2023/04/20 00:38:32;;;;;;;12.38;6.05;;;;;;;8.55;100.00;102782.84;5139851;27;20058;-89
2023/04/20 00:40:59;;;;;;;12.82;5.80;;;;;;;8.09;100.00;102699.09;5138891;27;20042;-89
2023/04/20 00:43:26;;;;;;;12.15;5.32;;;;;;;8.37;100.00;102740.94;5137910;27;20047;-89
2023/04/20 00:45:53;;;;;;;12.60;5.75;;;;;;;8.51;100.00;102777.59;5138174;27;20051;-90
2023/04/20 00:48:21;;;;;;;11.90;4.97;;;;;;;8.31;100.00;102722.66;5138738;27;20067;-89
2023/04/20 00:50:49;;;;;;;13.48;6.35;;;;;;;8.48;100.00;102752.34;5138357;27;20046;-91
2023/04/20 00:53:17;;;;;;;11.77;5.78;;;;;;;8.59;100.00;102765.44;5136153;27;20047;-90
2023/04/20 00:55:44;;;;;;;9.85;4.30;;;;;;;8.40;100.00;102729.66;5134771;27;20439;-91
2023/04/20 00:58:11;;;;;;;11.57;5.10;;;;;;;7.95;100.00;102674.66;5138954;27;20062;-91
2023/04/20 01:00:39;;;;;;;12.32;5.93;;;;;;;8.27;100.00;102747.00;5139427;27;20373;-91
2023/04/20 01:03:07;;;;;;;11.52;5.20;;;;;;;7.98;100.00;102721.66;5135478;27;20038;-91
2023/04/20 01:05:35;;;;;;;9.73;4.57;;;;;;;7.97;100.00;102728.59;5127966;27;20142;-90
2023/04/20 01:08:01;;;;;;;12.02;4.80;;;;;;;8.04;100.00;102733.84;5137729;27;20051;-90
2023/04/20 01:10:29;;;;;;;10.38;4.90;;;;;;;7.76;100.00;102697.19;5137482;27;20396;-91
2023/04/20 01:12:56;;;;;;;9.75;4.13;;;;;;;7.41;100.00;102637.91;5137137;27;20051;-91
2023/04/20 01:15:23;;;;;;;8.80;3.70;;;;;;;7.78;100.00;102698.06;5137402;27;20047;-91
2023/04/20 01:17:51;;;;;;;11.00;5.15;;;;;;;7.89;100.00;102709.44;5137114;27;20047;-89
2023/04/20 01:20:19;;;;;;;11.23;4.97;;;;;;;8.12;100.00;102748.66;5136573;27;20070;-89
2023/04/20 01:22:47;;;;;;;13.75;5.40;;;;;;;7.91;100.00;102730.31;5136359;27;20039;-90
2023/04/20 01:25:15;;;;;;;10.35;4.80;;;;;;;7.72;100.00;102680.66;5137806;27;20637;-89
2023/04/20 01:27:42;;;;;;;9.80;4.15;;;;;;;7.75;100.00;102692.84;5137221;27;20054;-89
2023/04/20 01:30:10;;;;;;;11.65;5.25;;;;;;;7.54;100.00;102670.13;5137248;27;20357;-90
2023/04/20 01:32:38;;;;;;;10.80;5.18;;;;;;;8.02;100.00;102735.56;5132849;27;20047;-90
2023/04/20 01:35:07;;;;;;;11.48;5.85;;;;;;;7.73;100.00;102705.84;5136906;27;20075;-90
2023/04/20 01:37:33;;;;;;;10.45;4.60;;;;;;;7.84;100.00;102705.91;5133939;27;20104;-90
2023/04/20 01:40:02;;;;;;;10.05;4.28;;;;;;;7.67;100.00;102707.59;5137277;27;20108;-90
2023/04/20 01:42:29;;;;;;;8.48;3.80;;;;;;;7.37;100.00;102663.06;5135055;27;20047;-90
2023/04/20 01:44:56;;;;;;;10.57;4.75;;;;;;;7.30;100.00;102718.63;5128870;27;20489;-90
2023/04/20 01:47:23;;;;;;;9.25;4.50;;;;;;;6.71;100.00;102669.47;5121422;27;20043;-90
2023/04/20 01:49:49;;;;;;;10.45;5.07;;;;;;;6.72;100.00;102702.47;5136379;27;20043;-90
2023/04/20 01:52:16;;;;;;;10.88;4.30;;;;;;;6.56;100.00;102683.22;5136334;27;20051;-90
2023/04/20 01:54:43;;;;;;;9.32;4.55;;;;;;;6.42;100.00;102651.84;5136916;27;20055;-90
2023/04/20 01:57:10;;;;;;;10.63;5.57;;;;;;;6.51;100.00;102684.91;5136797;27;20051;-90
2023/04/20 01:59:36;;;;;;;8.77;4.25;;;;;;;6.45;100.00;102672.72;5135794;27;20046;-89
2023/04/20 02:02:03;;;;;;;10.50;5.10;;;;;;;6.23;100.00;102650.78;5132347;27;20047;-90
2023/04/20 02:04:30;;;;;;;10.98;5.30;;;;;;;6.49;100.00;102663.19;5135175;27;20164;-91
2023/04/20 02:06:57;;;;;;;10.23;4.55;;;;;;;6.59;100.00;102693.69;5134891;27;20057;-90
2023/04/20 02:09:23;;;;;;;10.60;4.90;;;;;;;6.25;100.00;102667.25;5134702;27;20454;-89
2023/04/20 02:11:50;;;;;;;10.85;4.63;;;;;;;6.34;100.00;102674.31;5133616;27;20050;-90
2023/04/20 02:14:17;;;;;;;9.93;4.15;;;;;;;6.53;100.00;102699.66;5134066;27;20055;-89
2023/04/20 02:16:44;;;;;;;9.50;4.20;;;;;;;6.35;100.00;102709.88;5124772;27;20469;-89
2023/04/20 02:19:11;;;;;;;9.23;3.67;;;;;;;6.27;100.00;102676.00;5115990;28;20055;-90
2023/04/20 02:21:37;;;;;;;8.80;3.85;;;;;;;5.97;100.00;102614.94;5136609;27;20043;-89
2023/04/20 02:24:05;;;;;;;9.35;4.28;;;;;;;6.15;100.00;102655.03;5136583;27;20046;-90
2023/04/20 02:26:31;;;;;;;8.98;3.88;;;;;;;6.06;100.00;102663.59;5135809;27;20051;-90
2023/04/20 02:28:58;;;;;;;9.18;3.67;;;;;;;6.20;100.00;102676.78;5135947;27;20050;-90
2023/04/20 02:31:25;;;;;;;8.63;3.83;;;;;;;5.76;100.00;102622.47;5136038;27;20043;-89
2023/04/20 02:33:52;;;;;;;7.72;2.92;;;;;;;5.84;100.00;102629.50;5130408;27;20124;-90
2023/04/20 02:36:18;;;;;;;6.97;2.90;;;;;;;6.18;100.00;102679.34;5131111;27;20058;-90
2023/04/20 02:38:45;;;;;;;7.82;3.65;;;;;;;6.13;100.00;102664.56;5130196;27;20494;-90
2023/04/20 02:41:12;;;;;;;9.20;3.75;;;;;;;5.85;100.00;102625.19;5135117;27;20050;-89
2023/04/20 02:43:39;;;;;;;9.38;4.30;;;;;;;5.97;100.00;102627.97;5120453;27;20051;-90
2023/04/20 02:46:06;;;;;;;8.38;3.53;;;;;;;5.93;100.00;102662.53;5134741;27;20050;-90
2023/04/20 02:48:33;;;;;;;8.18;3.30;;;;;;;6.19;100.00;102649.88;5133037;27;20487;-90
2023/04/20 02:51:00;;;;;;;8.23;3.28;;;;;;;6.32;100.00;102657.81;5134094;27;20042;-90
2023/04/20 02:53:27;;;;;;;8.52;3.72;;;;;;;6.00;100.00;102668.72;5130685;27;20039;-89
2023/04/20 02:55:54;;;;;;;8.73;4.10;;;;;;;5.89;100.00;102681.53;5125788;27;20057;-89
2023/04/20 02:58:20;;;;;;;8.00;3.78;;;;;;;5.56;100.00;102637.78;5135125;27;20043;-89
2023/04/20 03:00:47;;;;;;;8.77;3.78;;;;;;;5.48;100.00;102609.97;5134213;27;20054;-89
2023/04/20 03:03:14;;;;;;;7.75;3.47;;;;;;;5.42;100.00;102622.88;5134879;28;20051;-89
2023/04/20 03:05:41;;;;;;;9.40;3.97;;;;;;;5.79;100.00;102697.88;5128751;28;20051;-88
2023/04/20 03:08:08;;;;;;;8.63;3.72;;;;;;;5.81;100.00;102699.66;5115097;28;20051;-89
2023/04/20 03:10:35;;;;;;;8.77;3.67;;;;;;;5.74;100.00;102669.22;5128197;28;20050;-88
2023/04/20 03:13:01;;;;;;;11.30;4.47;;;;;;;5.56;100.00;102642.97;5133855;28;20070;-89
2023/04/20 03:15:28;;;;;;;9.20;4.22;;;;;;;5.30;100.00;102631.38;5134874;28;20051;-88
2023/04/20 03:17:55;;;;;;;8.52;3.78;;;;;;;5.42;100.00;102653.16;5136197;27;20055;-89
2023/04/20 03:20:22;;;;;;;9.65;3.67;;;;;;;5.22;100.00;102608.72;5135980;27;20067;-89
2023/04/20 03:22:49;;;;;;;6.93;2.60;;;;;;;5.41;100.00;102634.13;5135457;28;20051;-89
2023/04/20 03:25:16;;;;;;;10.75;4.13;;;;;;;5.50;100.00;102661.94;5135158;28;20051;-89
2023/04/20 03:27:44;;;;;;;8.15;3.28;;;;;;;5.63;100.00;102681.19;5134521;28;20050;-88
2023/04/20 03:30:11;;;;;;;7.90;3.35;;;;;;;5.46;100.00;102654.97;5134624;28;20050;-89
2023/04/20 03:32:39;;;;;;;10.05;3.92;;;;;;;5.30;100.00;102620.13;5130895;27;20047;-88
2023/04/20 03:35:07;;;;;;;7.90;3.47;;;;;;;5.71;100.00;102689.97;5125123;28;20126;-88
2023/04/20 03:37:37;;;;;;;7.20;3.25;;;;;;;5.29;100.00;102623.53;5126224;28;20576;-89
2023/04/20 03:40:09;;;;;;;8.02;3.28;;;;;;;5.11;100.00;102609.44;5122717;28;20063;-89
2023/04/20 03:42:38;;;;;;;7.95;3.42;;;;;;;5.73;100.00;102644.06;5135507;27;20404;-89
2023/04/20 03:45:06;;;;;;;9.13;4.18;;;;;;;5.73;100.00;102636.28;5135599;28;20503;-89
2023/04/20 03:47:32;;;;;;;7.53;3.15;;;;;;;5.90;100.00;102665.97;5134334;28;20047;-88
2023/04/20 03:49:59;;;;;;;7.50;2.90;;;;;;;5.99;100.00;102654.84;5114236;28;20043;-88
2023/04/20 03:52:26;;;;;;;8.50;3.50;;;;;;;5.79;100.00;102610.38;5128679;28;20043;-89
2023/04/20 03:54:53;;;;;;;9.43;3.65;;;;;;;5.77;100.00;102600.81;5135200;28;20557;-88
2023/04/20 03:57:20;;;;;;;9.57;3.78;;;;;;;5.82;100.00;102628.59;5134323;27;20055;-88
2023/04/20 03:59:46;;;;;;;9.70;3.75;;;;;;;5.23;100.00;102589.72;5135344;28;20048;-89
2023/04/20 04:02:14;;;;;;;9.13;3.58;;;;;;;5.18;100.00;102581.84;5135590;28;20403;-90
2023/04/20 04:04:41;;;;;;;7.25;2.83;;;;;;;5.65;100.00;102653.53;5120774;28;20058;-88
2023/04/20 04:07:08;;;;;;;8.65;3.08;;;;;;;5.60;100.00;102645.66;5135122;27;20096;-89
2023/04/20 04:09:35;;;;;;;8.73;3.72;;;;;;;5.21;100.00;102581.91;5136376;27;20043;-89
2023/04/20 04:12:03;;;;;;;8.93;3.35;;;;;;;5.39;100.00;102609.84;5137494;27;20047;-88
2023/04/20 04:14:30;;;;;;;7.90;3.28;;;;;;;5.23;100.00;102574.13;5129858;27;20047;-88
2023/04/20 04:16:57;;;;;;;8.02;3.33;;;;;;;5.61;100.00;102652.59;5134660;27;20465;-89
2023/04/20 04:19:24;;;;;;;8.23;3.08;;;;;;;5.06;100.00;102579.94;5139552;27;20047;-90
2023/04/20 04:21:51;;;;;;;8.80;3.50;;;;;;;4.97;100.00;102582.38;5139097;27;20039;-89
2023/04/20 04:24:18;;;;;;;8.65;4.05;;;;;;;5.05;100.00;102632.72;5139192;27;20076;-88
2023/04/20 04:26:46;;;;;;;7.68;3.30;;;;;;;5.03;100.00;102624.03;5139124;27;20062;-89
2023/04/20 04:29:12;;;;;;;7.88;3.15;;;;;;;5.00;100.00;102587.63;5139218;27;20050;-89
2023/04/20 04:31:39;;;;;;;8.68;3.35;;;;;;;5.01;100.00;102602.38;5134552;27;20043;-89
2023/04/20 04:34:06;;;;;;;10.60;4.70;;;;;;;4.94;100.00;102595.34;5125185;27;20043;-89
2023/04/20 04:36:33;;;;;;;10.63;4.13;;;;;;;5.08;100.00;102591.25;5140812;27;20507;-89
2023/04/20 04:39:00;;;;;;;8.25;3.38;;;;;;;5.30;100.00;102615.78;5139911;27;20047;-89
2023/04/20 04:41:27;;;;;;;8.52;3.65;;;;;;;4.98;100.00;102578.97;5136534;27;20389;-88
2023/04/20 04:43:54;;;;;;;7.57;3.10;;;;;;;5.28;100.00;102609.69;5123162;27;20055;-88
2023/04/20 04:46:24;;;;;;;8.18;3.47;;;;;;;5.38;100.00;102617.63;5131017;27;20052;-89
2023/04/20 04:48:51;;;;;;;9.65;4.22;;;;;;;5.27;100.00;102610.53;5136784;27;20133;-89
2023/04/20 04:51:17;;;;;;;9.77;4.50;;;;;;;5.31;100.00;102627.03;5138440;27;20043;-89
2023/04/20 04:53:46;;;;;;;10.55;3.95;;;;;;;5.37;100.00;102632.34;5128079;27;20047;-89
2023/04/20 04:56:13;;;;;;;9.80;4.10;;;;;;;5.06;100.00;102582.53;5139415;27;20053;-90
2023/04/20 04:58:40;;;;;;;9.77;3.90;;;;;;;5.21;100.00;102614.78;5139660;27;20638;-90
2023/04/20 05:01:06;;;;;;;9.77;4.30;;;;;;;5.24;100.00;102599.22;5140219;27;20054;-89
2023/04/20 05:03:33;;;;;;;10.48;4.55;;;;;;;5.09;100.00;102581.72;5138880;27;20047;-89
2023/04/20 05:06:00;;;;;;;9.38;3.97;;;;;;;5.24;100.00;102631.28;5140014;27;20047;-89
2023/04/20 05:08:27;;;;;;;8.60;3.85;;;;;;;5.21;100.00;102609.59;5138904;27;20055;-90
2023/04/20 05:10:54;;;;;;;9.20;3.97;;;;;;;5.10;100.00;102604.25;5138150;27;20047;-88
2023/04/20 05:13:20;;;;;;;8.85;3.83;;;;;;;5.19;100.00;102616.47;5137142;27;20047;-89
2023/04/20 05:15:47;;;;;;;9.65;4.00;;;;;;;5.17;100.00;102620.78;5137971;27;20065;-87
2023/04/20 05:18:14;;;;;;;8.52;3.50;;;;;;;5.04;100.00;102615.38;5125794;27;20053;-90
2023/04/20 05:20:41;;;;;;;8.60;3.55;;;;;;;5.02;100.00;102592.88;5127892;27;20506;-90
2023/04/20 05:23:08;;;;;;;11.20;4.68;;;;;;;5.08;100.00;102599.03;5138117;27;20055;-90
2023/04/20 05:25:36;;;;;;;8.73;3.83;;;;;;;5.32;100.00;102647.84;5129765;27;20050;-90
2023/04/20 05:28:03;;;;;;;11.25;3.25;;;;;;;5.08;100.00;102601.63;5128580;27;20205;-90
2023/04/20 05:30:30;;;;;;;8.82;3.90;;;;;;;5.33;100.00;102631.41;5137598;27;20047;-90
2023/04/20 05:32:57;;;;;;;9.45;3.97;;;;;;;5.07;100.00;102591.22;5138090;27;20047;-90
2023/04/20 05:35:27;;;;;;;9.18;4.07;;;;;;;5.28;100.00;102614.88;5133438;27;20055;-91
2023/04/20 05:37:54;;;;;;;7.70;3.42;;;;;;;5.24;100.00;102594.03;5139141;27;20050;-90
2023/04/20 05:40:21;;;;;;;9.00;3.88;;;;;;;5.33;100.00;102587.25;5123613;27;20039;-90
2023/04/20 05:42:48;;;;;;;8.88;3.67;;;;;;;5.19;100.00;102572.31;5124822;27;20495;-90
2023/04/20 05:45:15;;;;;;;8.05;3.63;;;;;;;5.62;100.00;102628.34;5124917;27;20048;-90
2023/04/20 05:47:51;;;;;;;8.55;3.45;;;;;;;5.49;100.00;102606.53;5133914;27;20498;-91
2023/04/20 05:50:18;;;;;;;8.23;3.50;;;;;;;5.51;100.00;102612.63;5139311;27;20047;-89
2023/04/20 05:52:45;;;;;;;8.63;3.67;;;;;;;5.72;100.00;102634.56;5133091;27;20131;-89
2023/04/20 05:55:12;;;;;;;8.20;3.45;;;;;;;5.41;100.00;102574.38;5131224;27;20047;-91
2023/04/20 05:57:46;;;;;;;7.65;3.15;;;;;;;5.46;100.00;102580.50;5129595;27;20055;-92
2023/04/20 06:00:14;;;;;;;7.95;3.38;;;;;;;5.87;100.00;102618.25;5129318;27;20059;-90
2023/04/20 06:02:42;;;;;;;7.05;2.92;;;;;;;5.89;100.00;102612.22;5143982;27;20389;-92
2023/04/20 06:05:10;;;;;;;8.88;3.88;;;;;;;5.87;100.00;102598.31;5146001;27;20051;-92
2023/04/20 06:07:39;;;;;;;8.52;3.45;;;;;;;5.24;100.00;102482.34;5144981;27;20130;-92
2023/04/20 06:10:09;;;;;;;7.80;3.70;;;;;;;5.49;100.00;102514.72;5145605;27;20047;-92
2023/04/20 06:12:49;;;;;;;8.57;3.30;;;;;;;5.81;100.00;102585.28;5143195;27;20047;-92
2023/04/20 06:15:16;;;;;;;8.27;3.05;;;;;;;5.77;100.00;102564.41;5142975;27;20055;-92
2023/04/20 06:17:44;;;;;;;8.85;3.70;;;;;;;5.75;100.00;102538.41;5143752;27;20047;-93
2023/04/20 06:20:11;;;;;;;7.82;3.30;;;;;;;6.13;100.00;102583.94;5144801;27;20081;-92
2023/04/20 06:22:46;;;;;;;8.68;3.58;;;;;;;5.69;100.00;102530.53;5142821;27;20063;-92
2023/04/20 06:25:14;;;;;;;9.45;3.60;;;;;;;5.50;100.00;102547.63;5144091;27;20053;-93
2023/04/20 06:27:41;;;;;;;8.68;3.45;;;;;;;5.56;100.00;102545.13;5142839;27;20047;-92
2023/04/20 06:30:09;;;;;;;8.52;3.20;;;;;;;6.03;100.00;102599.41;5140765;27;20050;-92
2023/04/20 06:32:36;;;;;;;8.68;3.30;;;;;;;6.31;100.00;102594.50;5139414;27;20129;-93
2023/04/20 06:35:07;;;;;;;10.07;3.28;;;;;;;7.15;100.00;102623.00;5140211;27;20134;-91
2023/04/20 06:37:35;;;;;;;9.80;3.70;;;;;;;8.42;100.00;102582.63;5140615;27;20047;-90
2023/04/20 06:40:09;;;;;;;8.95;3.70;;;;;;;9.42;100.00;102602.56;5138273;27;20059;-90
2023/04/20 06:42:38;;;;;;;10.65;5.47;;;;;;;9.81;100.00;102593.72;5138407;27;20043;-90
2023/04/20 06:45:06;;;;;;;10.65;5.88;;;;;;;10.47;100.00;102642.22;5138419;27;20051;-91
2023/04/20 06:47:33;;;;;;;14.32;7.97;;;;;;;10.77;100.00;102641.13;5138874;27;20051;-90
2023/04/20 06:50:03;;;;;;;11.40;5.25;;;;;;;11.29;100.00;102634.53;5138640;27;20055;-91
2023/04/20 06:52:30;;;;;;;9.60;4.07;;;;;;;11.66;100.00;102605.25;5138687;27;20480;-91
2023/04/20 06:55:01;;;;;;;11.60;5.63;;;;;;;12.16;100.00;102608.13;5138617;27;20412;-91
2023/04/20 06:57:28;;;;;;;11.65;5.70;;;;;;;11.96;100.00;102576.91;5139172;27;20114;-92
2023/04/20 06:59:55;;;;;;;13.32;6.65;;;;;;;11.96;100.00;102559.41;5139327;27;20051;-91
2023/04/20 07:02:22;;;;;;;13.23;7.47;;;;;;;12.70;100.00;102642.34;5139376;27;20074;-92
2023/04/20 07:04:51;;;;;;;11.20;5.68;;;;;;;12.41;100.00;102598.16;5122682;28;20047;-91
2023/04/20 07:07:18;;;;;;;17.08;8.40;;;;;;;12.68;100.00;102603.84;5138777;28;20449;-92
2023/04/20 07:09:44;;;;;;;12.15;5.75;;;;;;;12.59;100.00;102614.50;5139054;28;20054;-92
2023/04/20 07:12:14;;;;;;;10.45;5.38;;;;;;;12.42;100.00;102607.75;5139705;28;20053;-93
2023/04/20 07:14:41;;;;;;;11.75;5.93;;;;;;;12.25;100.00;102625.53;5139512;28;20047;-92
2023/04/20 07:17:09;;;;;;;10.80;4.32;;;;;;;12.48;100.00;102567.38;5140678;28;20126;-92
2023/04/20 07:19:36;;;;;;;12.65;5.53;;;;;;;13.09;100.00;102600.47;5139922;28;20051;-93
2023/04/20 07:22:02;;;;;;;10.88;4.88;;;;;;;12.63;100.00;102563.63;5140838;27;20047;-92
2023/04/20 07:24:29;;;;;;;12.43;4.88;;;;;;;12.80;100.00;102556.34;5139656;28;20054;-92
2023/04/20 07:26:57;;;;;;;11.23;5.70;;;;;;;13.14;100.00;102581.13;5139722;27;20047;-92
2023/04/20 07:29:24;;;;;;;10.05;4.72;;;;;;;13.35;100.00;102603.53;5139916;27;20047;-93
2023/04/20 07:31:51;;;;;;;9.50;3.80;;;;;;;13.60;100.00;102588.16;5140594;27;20057;-91
2023/04/20 07:34:18;;;;;;;10.65;5.28;;;;;;;13.64;100.00;102622.25;5139129;28;20076;-93
2023/04/20 07:36:45;;;;;;;9.73;4.50;;;;;;;13.64;100.00;102572.25;5139954;27;20471;-92
2023/04/20 07:39:14;;;;;;;9.10;4.07;;;;;;;13.67;100.00;102558.19;5139673;27;20058;-93
2023/04/20 07:41:42;;;;;;;11.77;5.30;;;;;;;14.02;100.00;102619.72;5139608;28;20092;-92
2023/04/20 07:44:11;;;;;;;10.57;3.88;;;;;;;13.96;100.00;102589.13;5141648;27;20051;-92
2023/04/20 07:46:38;;;;;;;10.20;4.93;;;;;;;14.53;100.00;102621.19;5122169;28;20048;-92
2023/04/20 07:49:05;;;;;;;11.10;4.30;;;;;;;13.91;100.00;102569.91;5123871;28;20055;-92
2023/04/20 07:51:33;;;;;;;9.70;4.53;;;;;;;14.37;100.00;102611.00;5127622;27;20043;-92
2023/04/20 07:53:59;;;;;;;13.63;5.00;;;;;;;14.13;100.00;102590.50;5141049;27;20066;-90
2023/04/20 07:56:26;;;;;;;11.75;6.00;;;;;;;13.89;100.00;102594.56;5140109;27;20085;-90
2023/04/20 07:58:53;;;;;;;12.27;4.78;;;;;;;13.82;100.00;102606.97;5128932;27;20051;-90
2023/04/20 08:01:24;;;;;;;10.57;4.78;;;;;;;13.73;100.00;102594.88;5136139;27;20043;-90
2023/04/20 08:03:53;;;;;;;9.45;3.72;;;;;;;14.08;100.00;102595.88;5131244;27;20404;-90
2023/04/20 08:06:21;;;;;;;9.95;4.65;;;;;;;14.50;100.00;102597.53;5134339;27;20047;-90
2023/04/20 08:08:47;;;;;;;13.70;4.68;;;;;;;14.12;100.00;102589.63;5131289;27;20498;-90
2023/04/20 08:11:14;;;;;;;8.05;3.42;;;;;;;14.41;100.00;102591.59;5131925;27;20047;-90
2023/04/20 08:13:41;;;;;;;9.30;4.18;;;;;;;14.65;100.00;102564.69;5139684;27;20057;-90
2023/04/20 08:16:08;;;;;;;8.73;3.95;;;;;;;14.96;100.00;102531.34;5139708;27;20058;-89
2023/04/20 08:18:35;;;;;;;8.60;3.08;;;;;;;15.43;100.00;102610.06;5139707;27;20074;-89
2023/04/20 08:21:02;;;;;;;10.13;3.13;;;;;;;15.24;100.00;102612.34;5133214;27;20050;-89
2023/04/20 08:23:28;;;;;;;8.57;3.33;;;;;;;14.78;100.00;102582.81;5138587;27;20051;-90
2023/04/20 08:25:56;;;;;;;7.85;3.22;;;;;;;14.67;100.00;102558.47;5139378;27;20053;-88
2023/04/20 08:28:23;;;;;;;8.80;3.47;;;;;;;14.67;100.00;102571.66;5139452;27;20073;-89
2023/04/20 08:30:59;;;;;;;9.82;4.25;;;;;;;14.79;100.00;102563.41;5139327;27;20081;-89
2023/04/20 08:33:26;;;;;;;11.60;4.38;;;;;;;14.75;100.00;102576.72;5138547;27;20054;-89
2023/04/20 08:35:53;;;;;;;9.65;4.25;;;;;;;14.93;100.00;102557.78;5139363;27;20105;-89
2023/04/20 08:38:20;;;;;;;10.10;4.30;;;;;;;15.05;100.00;102579.44;5139501;27;20054;-89
2023/04/20 08:40:59;;;;;;;10.23;4.30;;;;;;;15.01;100.00;102560.22;5138556;27;20081;-90
2023/04/20 08:43:25;;;;;;;10.90;4.50;;;;;;;14.69;100.00;102550.53;5126042;27;20055;-90
2023/04/20 08:45:57;;;;;;;10.13;4.35;;;;;;;14.87;100.00;102534.19;5118118;28;20101;-90
2023/04/20 08:48:28;;;;;;;9.90;4.13;;;;;;;15.16;100.00;102607.28;5130589;27;20077;-89
2023/04/20 08:50:56;;;;;;;11.60;4.00;;;;;;;15.26;100.00;102554.25;5138398;27;20056;-89
2023/04/20 08:53:22;;;;;;;7.97;3.08;;;;;;;15.36;100.00;102579.47;5137953;27;20051;-90
2023/04/20 08:55:49;;;;;;;9.90;3.60;;;;;;;15.29;100.00;102528.63;5124206;27;20491;-89
2023/04/20 08:58:17;;;;;;;7.78;3.00;;;;;;;15.28;100.00;102534.84;5136650;27;20419;-88
2023/04/20 09:00:50;;;;;;;11.52;2.95;;;;;;;15.65;100.00;102576.00;5138208;27;20055;-88
2023/04/20 09:03:16;;;;;;;;;;;;;;;15.90;100.00;102596.41;5135935;27;20036;-89
2023/04/20 09:05:44;;;;;;;6.18;2.20;;;;;;;16.01;100.00;102596.09;5138638;27;19920;-86
2023/04/20 09:08:11;;;;;;;7.57;2.47;;;;;;;15.87;100.00;102514.63;5138570;27;20419;-89
2023/04/20 09:10:42;;;;;;;5.45;1.98;;;;;;;15.56;100.00;102532.25;5137338;27;20400;-89
2023/04/20 09:13:20;;;;;;;5.97;2.17;;;;;;;15.90;96.54;102556.78;5122434;27;20365;-89
2023/04/20 09:15:47;;;;;;;9.52;2.30;;;;;;;15.63;81.71;102603.34;5137417;27;20055;-89
2023/04/20 09:18:14;;;;;;;7.60;2.42;;;;;;;15.19;86.54;102567.63;5133319;27;20063;-89
2023/04/20 09:20:41;;;;;;;5.00;1.85;;;;;;;15.71;86.24;102530.91;5130464;27;20056;-89
2023/04/20 09:23:16;;;;;;;8.38;2.38;;;;;;;15.57;83.22;102546.31;5136455;27;20047;-88
2023/04/20 09:25:45;;;;;;;7.20;2.13;;;;;;;15.50;75.22;102531.56;5131433;27;20055;-89
2023/04/20 09:28:12;;;;;;;8.85;2.05;;;;;;;15.79;79.92;102538.63;5116397;28;20058;-88
2023/04/20 09:30:42;;;;;;;7.80;2.00;;;;;;;15.68;76.85;102541.56;5131507;27;20051;-89
2023/04/20 09:33:11;;;;;;;6.70;1.90;;;;;;;16.14;75.52;102581.56;5135636;27;20043;-88
2023/04/20 09:35:39;;;;;;;7.55;2.92;;;;;;;15.29;74.43;102501.38;5138922;27;20047;-88
2023/04/20 09:38:07;;;;;;;8.55;2.50;;;;;;;15.39;82.89;102534.53;5136327;27;20138;-88
2023/04/20 09:40:34;;;;;;;7.18;2.30;;;;;;;15.68;83.69;102524.88;5122946;27;20048;-88
2023/04/20 09:43:23;;;;;;;9.63;3.22;;;;;;;15.44;83.77;102526.47;5135615;27;20047;-87
2023/04/20 09:45:50;;;;;;;7.72;2.38;;;;;;;15.84;83.88;102543.78;5133826;27;20628;-88
2023/04/20 09:48:19;;;;;;;7.50;2.65;;;;;;;16.21;73.96;102550.53;5125304;27;20039;-89
2023/04/20 09:50:47;;;;;;;7.82;2.30;;;;;;;16.13;70.23;102527.03;5135069;27;20047;-89
2023/04/20 09:53:18;;;;;;;8.65;3.30;;;;;;;15.82;67.31;102566.75;5130631;27;20455;-90
2023/04/20 09:55:47;;;;;;;11.35;3.45;;;;;;;15.81;71.43;102568.53;5137984;27;20047;-90
2023/04/20 09:58:22;;;;;;;10.90;3.97;;;;;;;15.42;75.19;102526.50;5136125;27;20079;-87
2023/04/20 10:00:49;;;;;;;12.38;4.70;;;;;;;15.27;83.37;102521.69;5122704;27;20457;-86
2023/04/20 10:03:18;;;;;;;13.77;4.97;;;;;;;15.55;79.72;102604.44;5133212;27;20476;-87
2023/04/20 10:05:46;;;;;;;12.50;5.70;;;;;;;15.28;95.15;102515.47;5133978;27;20677;-86
2023/04/20 10:08:12;;;;;;;12.30;6.00;;;;;;;14.76;100.00;102529.22;5132264;27;20058;-87
2023/04/20 10:10:48;;;;;;;13.65;5.93;;;;;;;14.80;100.00;102578.34;5121922;27;20047;-87
2023/04/20 10:13:20;;;;;;;14.60;6.93;;;;;;;14.87;100.00;102594.84;5131357;27;20126;-87
2023/04/20 10:15:47;;;;;;;15.20;7.32;;;;;;;14.93;100.00;102562.22;5133922;27;20047;-88
2023/04/20 10:18:17;;;;;;;13.10;6.93;;;;;;;14.58;100.00;102562.19;5132729;27;20047;-87
2023/04/20 10:20:45;;;;;;;15.27;6.50;;;;;;;14.26;100.00;102501.50;5113236;28;20059;-87
2023/04/20 10:23:14;;;;;;;12.07;4.22;;;;;;;14.20;100.00;102518.31;5133690;27;20092;-87
2023/04/20 10:25:43;;;;;;;11.07;4.47;;;;;;;14.30;100.00;102550.59;5118643;27;20108;-86
2023/04/20 10:28:10;;;;;;;11.25;5.25;;;;;;;14.19;100.00;102521.88;5143011;27;20453;-86
2023/04/20 10:30:49;;;;;;;15.23;6.45;;;;;;;14.48;100.00;102596.69;5133334;27;20051;-86
2023/04/20 10:33:16;;;;;;;13.70;6.65;;;;;;;13.61;100.00;102551.25;5130148;27;20053;-87
2023/04/20 10:35:48;;;;;;;11.10;4.78;;;;;;;14.19;100.00;102600.91;5117804;27;20672;-86
2023/04/20 10:38:26;;;;;;;13.52;6.30;;;;;;;14.40;100.00;102591.63;5130826;27;20051;-85
2023/04/20 10:40:53;;;;;;;14.13;6.45;;;;;;;13.84;100.00;102540.22;5121824;27;20071;-86
2023/04/20 10:43:21;;;;;;;11.77;5.60;;;;;;;13.60;100.00;102598.69;5130513;27;20047;-86
2023/04/20 10:45:49;;;;;;;14.70;5.50;;;;;;;13.91;100.00;102593.63;5134201;27;20072;-87
2023/04/20 10:48:16;;;;;;;15.00;7.07;;;;;;;13.38;100.00;102564.03;5128358;27;20055;-87
2023/04/20 10:50:44;;;;;;;13.73;6.15;;;;;;;13.44;100.00;102577.94;5132964;27;20465;-86
2023/04/20 10:53:22;;;;;;;10.57;5.20;;;;;;;13.52;100.00;102590.94;5128411;27;20048;-86
2023/04/20 10:55:59;;;;;;;10.60;4.88;;;;;;;13.62;100.00;102594.25;5124345;27;20096;-87
2023/04/20 10:58:26;;;;;;;9.02;4.47;;;;;;;12.97;100.00;102566.53;5133596;27;20051;-86
2023/04/20 11:01:00;;;;;;;12.35;5.55;;;;;;;13.15;100.00;102539.00;5133870;27;20047;-87
2023/04/20 11:03:29;;;;;;;11.73;5.20;;;;;;;12.93;100.00;102533.31;5117314;27;20093;-86
2023/04/20 11:06:01;;;;;;;11.40;4.53;;;;;;;13.55;100.00;102597.91;5132876;27;20122;-85
2023/04/20 11:08:41;;;;;;;10.05;4.63;;;;;;;13.71;100.00;102574.75;5133823;27;20473;-86
2023/04/20 11:11:28;;;;;;;10.40;4.82;;;;;;;13.21;100.00;102536.28;5119445;28;20084;-86
2023/04/20 11:14:10;;;;;;;13.48;5.03;;;;;;;13.19;100.00;102524.03;5129955;28;20051;-86
2023/04/20 11:16:37;;;;;;;11.25;4.90;;;;;;;13.55;100.00;102596.13;5133424;27;20051;-86
2023/04/20 11:19:24;;;;;;;11.57;4.53;;;;;;;13.91;100.00;102588.34;5135153;27;20039;-86
2023/04/20 11:21:51;;;;;;;12.30;4.15;;;;;;;13.30;100.00;102501.88;5133536;27;20404;-86
2023/04/20 11:24:26;;;;;;;13.65;5.38;;;;;;;13.24;100.00;102583.56;5137870;27;20472;-85